Time;durP1;ratioP1;P1;durP2;ratioP2;P2;SDS_P1;SDS_P2;PMS_P1;PMS_P2;Temp;Humidity;BMP_temperature;BMP_pressure;BME280_temperature;BME280_humidity;BME280_pressure;Samples;Min_cycle;Max_cycle;Signal;HPM_P1;HPM_P2
2023/10/06 00:00:19;;;;;;;;;;;;;;;11.74;66.99;99077.84;5088329;28;19924;-64
2023/10/06 00:03:10;;;;;;;;;;;;;;;11.74;66.98;99081.38;5098870;28;20387;-64
2023/10/06 00:06:01;;;;;;;;;;;;;;;11.73;66.89;99084.41;5104047;28;19931;-64
2023/10/06 00:08:51;;;;;;;;;;;;;;;11.75;66.68;99079.47;5113882;28;19924;-64
2023/10/06 00:11:40;;;;;;;;;;;;;;;11.64;66.71;99086.13;5105887;28;19924;-64
2023/10/06 00:14:39;;;;;;;;;;;;;;;11.64;66.72;99080.69;5112707;28;19923;-64
2023/10/06 00:17:33;;;;;;;;;;;;;;;11.70;66.61;99074.09;5103182;28;20394;-63
2023/10/06 00:20:26;;;;;;;;;;;;;;;11.68;66.32;99068.94;5109728;28;20394;-64
2023/10/06 00:23:21;;;;;;;;;;;;;;;11.61;66.27;99064.91;5101076;28;20296;-63
2023/10/06 00:26:11;;;;;;;;;;;;;;;11.51;66.27;99071.31;5111195;28;20014;-63
2023/10/06 00:29:09;;;;;;;;;;;;;;;11.38;66.43;99080.16;5100445;28;20000;-64
2023/10/06 00:32:04;;;;;;;;;;;;;;;11.38;66.31;99078.22;5109108;27;19931;-64
2023/10/06 00:34:54;;;;;;;;;;;;;;;11.40;66.13;99076.06;5108660;27;19930;-64
2023/10/06 00:37:42;;;;;;;;;;;;;;;11.41;66.19;99076.88;5099503;27;19930;-64
2023/10/06 00:40:33;;;;;;;;;;;;;;;11.38;66.51;99078.22;5111721;27;19923;-64
2023/10/06 00:43:34;;;;;;;;;;;;;;;11.38;66.22;99075.50;5107972;27;19925;-63
2023/10/06 00:46:24;;;;;;;;;;;;;;;11.38;66.08;99075.50;5106775;27;19923;-64
2023/10/06 00:49:13;;;;;;;;;;;;;;;11.37;66.14;99076.63;5120424;27;20377;-64
2023/10/06 00:52:01;;;;;;;;;;;;;;;11.35;66.18;99072.56;5114896;27;20300;-64
2023/10/06 00:54:49;;;;;;;;;;;;;;;11.30;66.37;99073.44;5106131;27;19935;-64
2023/10/06 00:57:40;;;;;;;;;;;;;;;11.25;66.40;99078.94;5108931;27;19928;-64
2023/10/06 01:00:31;;;;;;;;;;;;;;;11.24;66.19;99080.84;5109382;27;19938;-64
2023/10/06 01:03:21;;;;;;;;;;;;;;;11.24;66.30;99074.59;5115415;27;20451;-64
2023/10/06 01:06:12;;;;;;;;;;;;;;;11.23;65.99;99078.38;5092640;28;20261;-64
2023/10/06 01:09:09;;;;;;;;;;;;;;;11.13;66.33;99087.47;5100974;27;19977;-64
2023/10/06 01:11:57;;;;;;;;;;;;;;;11.19;66.27;99085.50;5098038;27;20316;-64
2023/10/06 01:14:51;;;;;;;;;;;;;;;11.21;66.44;99080.59;5118161;27;19967;-64
2023/10/06 01:17:39;;;;;;;;;;;;;;;11.15;66.20;99065.41;5115154;27;19930;-64
2023/10/06 01:20:34;;;;;;;;;;;;;;;11.18;66.28;99062.09;5113461;27;20380;-63
2023/10/06 01:23:27;;;;;;;;;;;;;;;11.04;66.68;99069.34;5114726;27;20699;-64
2023/10/06 01:26:16;;;;;;;;;;;;;;;11.00;66.79;99061.75;5117627;27;19923;-64
2023/10/06 01:29:03;;;;;;;;;;;;;;;11.03;66.69;99060.38;5115869;27;20043;-64
2023/10/06 01:31:52;;;;;;;;;;;;;;;11.01;66.53;99057.91;5116100;27;19979;-64
2023/10/06 01:34:40;;;;;;;;;;;;;;;11.07;66.50;99057.88;5119622;27;19927;-64
2023/10/06 01:37:28;;;;;;;;;;;;;;;11.04;66.31;99063.91;5113930;27;19923;-64
2023/10/06 01:40:35;;;;;;;;;;;;;;;10.95;66.69;99059.06;5094891;28;19950;-64
2023/10/06 01:43:24;;;;;;;;;;;;;;;10.92;66.69;99056.94;5101797;28;19924;-67
2023/10/06 01:46:14;;;;;;;;;;;;;;;10.92;66.87;99059.66;5097502;28;20022;-64
2023/10/06 01:49:04;;;;;;;;;;;;;;;10.90;66.69;99056.38;5102241;28;20045;-64
2023/10/06 01:51:52;;;;;;;;;;;;;;;10.94;66.71;99045.75;5108499;28;19927;-63
2023/10/06 01:54:44;;;;;;;;;;;;;;;10.88;67.08;99042.28;5118190;27;19924;-64
2023/10/06 01:57:34;;;;;;;;;;;;;;;10.87;66.60;99046.09;5103893;28;19930;-63
2023/10/06 02:00:26;;;;;;;;;;;;;;;10.91;66.56;99044.41;5101491;28;19931;-63
2023/10/06 02:03:16;;;;;;;;;;;;;;;10.81;66.62;99047.22;5101738;28;19973;-64
2023/10/06 02:06:05;;;;;;;;;;;;;;;10.80;66.55;99050.22;5112254;27;20407;-64
2023/10/06 02:08:54;;;;;;;;;;;;;;;10.72;66.75;99048.94;5109303;28;19980;-64
2023/10/06 02:11:42;;;;;;;;;;;;;;;10.68;66.84;99048.69;5093008;28;19924;-64
2023/10/06 02:14:32;;;;;;;;;;;;;;;10.68;66.70;99043.25;5088520;28;19924;-63
2023/10/06 02:17:20;;;;;;;;;;;;;;;10.70;66.68;99041.06;5103774;27;19935;-63
2023/10/06 02:20:13;;;;;;;;;;;;;;;10.67;66.99;99051.69;5086966;27;20011;-63
2023/10/06 02:23:03;;;;;;;;;;;;;;;10.66;66.97;99050.09;5107543;27;19930;-64
2023/10/06 02:25:51;;;;;;;;;;;;;;;10.61;67.00;99041.97;5093519;27;19931;-64
2023/10/06 02:28:40;;;;;;;;;;;;;;;10.62;66.60;99051.72;5092220;27;19984;-64
2023/10/06 02:31:35;;;;;;;;;;;;;;;10.58;66.77;99047.94;5107538;27;20285;-64
2023/10/06 02:34:29;;;;;;;;;;;;;;;10.59;66.77;99049.56;5119220;27;19931;-63
2023/10/06 02:37:22;;;;;;;;;;;;;;;10.56;66.81;99039.28;5106861;27;19928;-65
2023/10/06 02:40:12;;;;;;;;;;;;;;;10.57;66.62;99035.47;5117839;27;19928;-64
2023/10/06 02:43:03;;;;;;;;;;;;;;;10.55;66.26;99045.81;5104703;27;20021;-64
2023/10/06 02:45:51;;;;;;;;;;;;;;;10.53;66.35;99032.50;5098549;27;19923;-64
2023/10/06 02:48:48;;;;;;;;;;;;;;;10.51;66.07;99039.31;5102727;27;19923;-64
2023/10/06 02:51:47;;;;;;;;;;;;;;;10.51;66.01;99036.59;5098419;27;20039;-63
2023/10/06 02:54:36;;;;;;;;;;;;;;;10.47;65.98;99048.03;5113104;27;19928;-64
2023/10/06 02:57:25;;;;;;;;;;;;;;;10.43;66.00;99046.16;5112713;27;19939;-64
2023/10/06 03:00:32;;;;;;;;;;;;;;;10.43;66.15;99051.59;5092667;27;19924;-64
2023/10/06 03:03:22;;;;;;;;;;;;;;;10.39;66.11;99048.63;5107600;27;19959;-64
2023/10/06 03:06:16;;;;;;;;;;;;;;;10.34;66.17;99047.88;5099571;27;20018;-64
2023/10/06 03:09:07;;;;;;;;;;;;;;;10.39;66.23;99045.13;5124853;27;20263;-63
2023/10/06 03:11:58;;;;;;;;;;;;;;;10.38;66.31;99051.63;5101699;27;20013;-63
2023/10/06 03:14:46;;;;;;;;;;;;;;;10.25;66.51;99049.53;5118585;27;19923;-64
2023/10/06 03:17:34;;;;;;;;;;;;;;;10.20;66.75;99042.22;5093883;27;19928;-64
2023/10/06 03:20:27;;;;;;;;;;;;;;;10.21;66.94;99041.09;5087990;27;20004;-64
2023/10/06 03:23:31;;;;;;;;;;;;;;;10.21;66.90;99054.69;5112573;27;20025;-63
2023/10/06 03:26:25;;;;;;;;;;;;;;;10.23;66.95;99041.66;5114906;27;19979;-63
2023/10/06 03:29:28;;;;;;;;;;;;;;;10.17;67.10;99042.75;5097708;28;19928;-63
2023/10/06 03:32:27;;;;;;;;;;;;;;;10.16;66.92;99047.38;5116514;27;20018;-64
2023/10/06 03:35:21;;;;;;;;;;;;;;;10.12;66.70;99054.47;5096287;27;20521;-64
2023/10/06 03:41:24;;;;;;;;;;;;;;;10.11;66.66;99046.59;5096644;28;20307;-63
2023/10/06 03:44:17;;;;;;;;;;;;;;;10.11;66.58;99049.31;5102726;28;20271;-64
2023/10/06 03:47:08;;;;;;;;;;;;;;;10.15;66.58;99051.19;5106116;28;20010;-67
2023/10/06 03:49:56;;;;;;;;;;;;;;;10.12;66.66;99061.78;5091528;28;19924;-64
2023/10/06 03:52:46;;;;;;;;;;;;;;;10.10;66.66;99053.94;5096484;28;19928;-64
2023/10/06 03:55:36;;;;;;;;;;;;;;;10.11;66.47;99054.75;5090326;28;19932;-67
2023/10/06 03:58:28;;;;;;;;;;;;;;;9.97;66.62;99039.09;5117638;28;19931;-63
2023/10/06 04:01:19;;;;;;;;;;;;;;;10.03;66.37;99056.16;5114842;28;19928;-64
2023/10/06 04:04:07;;;;;;;;;;;;;;;10.03;66.31;99052.63;5092116;28;19924;-64
2023/10/06 04:06:57;;;;;;;;;;;;;;;10.04;66.07;99043.38;5098498;27;20400;-64
2023/10/06 04:09:49;;;;;;;;;;;;;;;10.03;65.99;99042.56;5108971;27;20497;-64
2023/10/06 04:12:37;;;;;;;;;;;;;;;9.95;65.99;99040.44;5108865;27;19923;-64
2023/10/06 04:15:27;;;;;;;;;;;;;;;9.98;66.02;99045.31;5116953;27;19928;-64
2023/10/06 04:18:17;;;;;;;;;;;;;;;9.95;65.82;99046.69;5112840;27;19932;-63
2023/10/06 04:21:11;;;;;;;;;;;;;;;9.88;66.05;99035.31;5120717;27;20304;-63
2023/10/06 04:24:00;;;;;;;;;;;;;;;9.91;65.69;99042.09;5113621;27;20292;-64
2023/10/06 04:26:48;;;;;;;;;;;;;;;9.87;65.74;99032.88;5116699;27;21894;-64
2023/10/06 04:29:39;;;;;;;;;;;;;;;9.83;65.61;99034.53;5106585;27;19930;-63
2023/10/06 04:32:28;;;;;;;;;;;;;;;9.80;65.78;99029.66;5115251;27;19930;-63
2023/10/06 04:35:24;;;;;;;;;;;;;;;9.82;65.86;99039.16;5112202;27;20396;-64
2023/10/06 04:38:12;;;;;;;;;;;;;;;9.87;65.98;99038.31;5112548;28;19924;-63
2023/10/06 04:41:02;;;;;;;;;;;;;;;9.91;65.86;99034.78;5098409;28;19950;-63
2023/10/06 04:43:51;;;;;;;;;;;;;;;9.80;66.10;99043.22;5108128;27;19923;-64
2023/10/06 04:46:40;;;;;;;;;;;;;;;9.82;66.16;99043.78;5117188;27;19923;-63
2023/10/06 04:49:31;;;;;;;;;;;;;;;9.85;65.94;99045.91;5120766;27;19934;-63
2023/10/06 04:52:19;;;;;;;;;;;;;;;9.80;66.18;99049.50;5093388;27;19928;-63
2023/10/06 04:55:11;;;;;;;;;;;;;;;9.77;66.22;99041.88;5116482;27;19964;-63
2023/10/06 04:57:59;;;;;;;;;;;;;;;9.73;66.14;99048.16;5100838;27;20009;-63
2023/10/06 05:00:52;;;;;;;;;;;;;;;9.73;66.17;99038.09;5107102;27;20419;-63
2023/10/06 05:03:43;;;;;;;;;;;;;;;9.58;66.24;99038.97;5109347;27;19931;-64
2023/10/06 05:06:34;;;;;;;;;;;;;;;9.55;66.33;99036.81;5102570;27;19930;-63
2023/10/06 05:09:22;;;;;;;;;;;;;;;9.57;66.49;99045.47;5107537;27;19955;-63
2023/10/06 05:12:12;;;;;;;;;;;;;;;9.54;66.40;99045.25;5099842;27;20015;-65
2023/10/06 05:15:01;;;;;;;;;;;;;;;9.57;66.17;99050.09;5114230;27;19931;-64
2023/10/06 05:17:54;;;;;;;;;;;;;;;9.62;66.13;99050.91;5111260;27;20361;-63
2023/10/06 05:20:42;;;;;;;;;;;;;;;9.60;66.11;99057.69;5111377;27;19967;-63
2023/10/06 05:23:31;;;;;;;;;;;;;;;9.62;66.10;99050.09;5099824;27;20025;-63
2023/10/06 05:26:22;;;;;;;;;;;;;;;9.66;66.09;99051.16;5109020;27;20429;-63
2023/10/06 05:29:14;;;;;;;;;;;;;;;9.60;66.17;99046.84;5108191;27;19928;-63
2023/10/06 05:32:02;;;;;;;;;;;;;;;9.59;66.33;99043.31;5099865;27;19931;-64
2023/10/06 05:34:50;;;;;;;;;;;;;;;9.59;66.24;99039.81;5109038;27;20148;-64
2023/10/06 05:37:38;;;;;;;;;;;;;;;9.62;66.36;99037.31;5104555;27;20373;-63
2023/10/06 05:40:29;;;;;;;;;;;;;;;9.65;66.00;99035.97;5109894;28;19935;-64
2023/10/06 05:43:17;;;;;;;;;;;;;;;9.59;66.15;99037.09;5106821;27;19924;-64
2023/10/06 05:46:05;;;;;;;;;;;;;;;9.58;66.25;99049.81;5106039;27;19927;-68
2023/10/06 05:48:53;;;;;;;;;;;;;;;9.57;66.40;99045.47;5109075;28;19924;-64
2023/10/06 05:51:43;;;;;;;;;;;;;;;9.56;66.36;99054.72;5107914;28;19947;-65
2023/10/06 05:54:31;;;;;;;;;;;;;;;9.59;66.80;99054.19;5108027;27;20387;-64
2023/10/06 05:57:21;;;;;;;;;;;;;;;9.56;66.69;99053.91;5102934;28;19923;-64
2023/10/06 06:00:18;;;;;;;;;;;;;;;9.60;66.83;99060.41;5107674;28;19928;-64
2023/10/06 06:03:10;;;;;;;;;;;;;;;9.64;67.11;99062.31;5100277;28;19953;-64
2023/10/06 06:06:02;;;;;;;;;;;;;;;9.69;67.23;99066.88;5109091;28;19986;-64
2023/10/06 06:08:55;;;;;;;;;;;;;;;9.67;67.10;99071.78;5106403;28;19927;-64
2023/10/06 06:11:44;;;;;;;;;;;;;;;9.68;67.16;99084.25;5099798;28;20479;-63
2023/10/06 06:14:34;;;;;;;;;;;;;;;9.76;67.23;99085.59;5106870;28;19928;-64
2023/10/06 06:17:22;;;;;;;;;;;;;;;9.74;67.36;99093.19;5099703;28;19930;-64
2023/10/06 06:20:14;;;;;;;;;;;;;;;9.78;67.52;99078.78;5093771;28;19975;-65
2023/10/06 06:23:08;;;;;;;;;;;;;;;9.75;67.75;99084.78;5097347;28;19928;-64
2023/10/06 06:25:56;;;;;;;;;;;;;;;9.79;67.65;99077.69;5107553;27;19935;-64
2023/10/06 06:28:44;;;;;;;;;;;;;;;9.81;67.85;99082.88;5116878;27;19927;-64
2023/10/06 06:31:34;;;;;;;;;;;;;;;9.83;67.80;99083.38;5110751;27;19939;-64
2023/10/06 06:34:22;;;;;;;;;;;;;;;9.90;67.81;99084.69;5119805;27;19924;-64
2023/10/06 06:37:10;;;;;;;;;;;;;;;9.90;67.78;99092.03;5113733;27;19965;-64
2023/10/06 06:39:58;;;;;;;;;;;;;;;9.95;67.88;99089.31;5109243;27;20033;-63
2023/10/06 06:42:46;;;;;;;;;;;;;;;10.03;67.82;99094.16;5106973;27;20378;-64
2023/10/06 06:45:39;;;;;;;;;;;;;;;10.03;68.03;99086.03;5113383;27;20407;-64
2023/10/06 06:48:30;;;;;;;;;;;;;;;10.05;68.10;99088.44;5108278;28;19923;-64
2023/10/06 06:51:18;;;;;;;;;;;;;;;10.11;67.94;99087.31;5108836;28;19923;-64
2023/10/06 06:54:07;;;;;;;;;;;;;;;10.17;67.84;99087.03;5109146;28;19927;-64
2023/10/06 06:56:55;;;;;;;;;;;;;;;10.14;68.19;99090.31;5093011;28;19930;-66
2023/10/06 06:59:44;;;;;;;;;;;;;;;10.18;68.24;99087.84;5088052;28;19924;-64
2023/10/06 07:02:32;;;;;;;;;;;;;;;10.16;68.08;99079.97;5104446;27;19931;-64
2023/10/06 07:05:23;;;;;;;;;;;;;;;10.13;68.07;99079.72;5102327;28;19924;-64
2023/10/06 07:08:15;;;;;;;;;;;;;;;10.21;68.20;99084.56;5100216;28;22333;-64
2023/10/06 07:11:07;;;;;;;;;;;;;;;10.22;68.23;99078.84;5102760;27;19924;-64
2023/10/06 07:13:55;;;;;;;;;;;;;;;10.28;68.33;99082.41;5086867;28;19931;-64
2023/10/06 07:16:43;;;;;;;;;;;;;;;10.39;68.42;99088.59;5112110;27;19928;-64
2023/10/06 07:19:32;;;;;;;;;;;;;;;10.43;68.54;99078.75;5103655;28;19924;-64
2023/10/06 07:22:29;;;;;;;;;;;;;;;10.49;68.25;99078.47;5108293;27;19970;-64
2023/10/06 07:25:17;;;;;;;;;;;;;;;10.51;68.80;99070.03;5096159;28;19924;-64
2023/10/06 07:28:07;;;;;;;;;;;;;;;10.55;69.55;99070.28;5109998;27;20000;-64
2023/10/06 07:30:55;;;;;;;;;;;;;;;10.66;69.51;99072.63;5106215;27;19930;-64
2023/10/06 07:33:43;;;;;;;;;;;;;;;10.76;69.23;99066.31;5101126;28;19923;-64
2023/10/06 07:36:35;;;;;;;;;;;;;;;10.83;69.06;99069.50;5099717;28;19986;-64
2023/10/06 07:39:26;;;;;;;;;;;;;;;10.85;69.27;99075.47;5103115;28;19931;-64
2023/10/06 07:42:16;;;;;;;;;;;;;;;10.96;69.39;99085.16;5099856;28;19999;-64
2023/10/06 07:45:06;;;;;;;;;;;;;;;11.07;69.31;99090.50;5100722;28;22302;-64
2023/10/06 07:47:54;;;;;;;;;;;;;;;11.16;69.27;99096.97;5105263;27;20436;-64
2023/10/06 07:50:42;;;;;;;;;;;;;;;11.24;69.64;99099.06;5108299;28;20297;-64
2023/10/06 07:53:30;;;;;;;;;;;;;;;11.23;69.62;99102.88;5104277;28;19930;-64
2023/10/06 07:56:19;;;;;;;;;;;;;;;11.23;70.02;99108.31;5105117;28;19923;-64
2023/10/06 07:59:08;;;;;;;;;;;;;;;11.26;70.57;99114.00;5099637;28;19928;-64
2023/10/06 08:01:57;;;;;;;;;;;;;;;11.26;70.94;99124.88;5105654;28;19981;-64
2023/10/06 08:04:45;;;;;;;;;;;;;;;11.35;71.04;99116.91;5071043;28;19928;-64
2023/10/06 08:07:34;;;;;;;;;;;;;;;11.48;70.73;99116.22;5062993;28;20290;-64
2023/10/06 08:10:23;;;;;;;;;;;;;;;11.62;70.52;99110.13;5080443;28;19989;-64
2023/10/06 08:13:12;;;;;;;;;;;;;;;11.76;70.40;99102.88;5074504;28;19925;-64
2023/10/06 08:16:00;;;;;;;;;;;;;;;11.82;70.41;99099.00;5074137;28;19924;-64
2023/10/06 08:18:48;;;;;;;;;;;;;;;11.90;70.48;99106.56;5080169;28;20321;-64
2023/10/06 08:21:37;;;;;;;;;;;;;;;12.00;70.45;99098.25;5066999;28;19950;-64
2023/10/06 08:24:26;;;;;;;;;;;;;;;12.06;70.36;99097.09;5070867;28;19935;-64
2023/10/06 08:27:21;;;;;;;;;;;;;;;12.15;70.43;99091.00;5074723;28;19924;-64
2023/10/06 08:30:16;;;;;;;;;;;;;;;12.22;70.67;99083.28;5071564;28;19925;-64
2023/10/06 08:33:08;;;;;;;;;;;;;;;12.28;70.63;99088.34;5063148;28;19994;-64
2023/10/06 08:35:57;;;;;;;;;;;;;;;12.36;70.64;99086.91;5069208;28;20077;-64
2023/10/06 08:38:46;;;;;;;;;;;;;;;12.42;70.46;99091.16;5065182;28;19987;-64
2023/10/06 08:41:36;;;;;;;;;;;;;;;12.52;70.50;99093.75;5075319;28;19924;-64
2023/10/06 08:44:24;;;;;;;;;;;;;;;12.59;70.19;99096.91;5068524;28;19925;-64
2023/10/06 08:47:14;;;;;;;;;;;;;;;12.68;70.05;99104.44;5071635;28;19925;-64
2023/10/06 08:50:20;;;;;;;;;;;;;;;12.80;69.95;99100.13;5068376;28;19931;-65
2023/10/06 08:53:09;;;;;;;;;;;;;;;12.87;69.89;99091.56;5062843;28;19932;-63
2023/10/06 08:55:59;;;;;;;;;;;;;;;12.90;69.65;99090.97;5073016;28;19924;-63
2023/10/06 08:58:47;;;;;;;;;;;;;;;13.01;69.78;99102.53;5060667;28;19925;-63
2023/10/06 09:01:35;;;;;;;;;;;;;;;13.07;69.17;99091.22;5074846;28;19998;-63
2023/10/06 09:04:25;;;;;;;;;;;;;;;13.14;68.76;99087.31;5082399;28;19959;-62
2023/10/06 09:07:15;;;;;;;;;;;;;;;13.24;68.71;99084.44;5091891;28;19928;-62
2023/10/06 09:10:12;;;;;;;;;;;;;;;13.33;68.65;99082.66;5088211;28;19991;-62
2023/10/06 09:13:02;;;;;;;;;;;;;;;13.40;68.11;99077.59;5092594;28;19932;-62
2023/10/06 09:15:56;;;;;;;;;;;;;;;13.47;67.45;99072.53;5088882;28;20062;-63
2023/10/06 09:18:44;;;;;;;;;;;;;;;13.56;67.27;99073.47;5088736;28;20806;-62
2023/10/06 09:21:33;;;;;;;;;;;;;;;13.61;66.57;99070.63;5089213;28;19946;-62
2023/10/06 09:24:23;;;;;;;;;;;;;;;13.71;66.50;99066.09;5094637;28;19923;-62
2023/10/06 09:27:21;;;;;;;;;;;;;;;13.71;65.35;99066.91;5096625;28;19924;-62
2023/10/06 09:30:12;;;;;;;;;;;;;;;13.78;65.37;99063.75;5095330;28;19928;-62
2023/10/06 09:33:04;;;;;;;;;;;;;;;13.80;64.84;99054.16;5089305;28;19923;-63
2023/10/06 09:36:01;;;;;;;;;;;;;;;13.87;64.62;99048.28;5100668;28;19936;-62
2023/10/06 09:38:50;;;;;;;;;;;;;;;13.93;63.78;99052.50;5096277;28;20490;-62
2023/10/06 09:41:38;;;;;;;;;;;;;;;13.99;64.08;99050.47;5089236;28;20369;-62
2023/10/06 09:44:26;;;;;;;;;;;;;;;14.07;64.22;99041.59;5088680;28;19932;-63
2023/10/06 09:47:14;;;;;;;;;;;;;;;14.16;63.89;99048.72;5088103;28;20288;-62
2023/10/06 09:50:06;;;;;;;;;;;;;;;14.24;63.58;99033.53;5091699;28;19928;-62
2023/10/06 09:52:54;;;;;;;;;;;;;;;14.32;63.07;99037.44;5085791;28;20293;-63
2023/10/06 09:55:46;;;;;;;;;;;;;;;14.32;62.06;99038.25;5091248;28;20061;-62
2023/10/06 09:58:35;;;;;;;;;;;;;;;14.36;62.03;99036.53;5089263;28;20069;-63
2023/10/06 10:01:24;;;;;;;;;;;;;;;14.42;60.96;99029.81;5091932;28;19950;-62
2023/10/06 10:04:12;;;;;;;;;;;;;;;14.50;60.01;99033.00;5108212;27;20400;-63
2023/10/06 10:07:02;;;;;;;;;;;;;;;14.58;60.66;99027.56;5109590;27;19955;-63
2023/10/06 10:09:52;;;;;;;;;;;;;;;14.65;60.68;99021.69;5108064;27;19924;-63
2023/10/06 10:12:52;;;;;;;;;;;;;;;14.67;59.91;99012.03;5115467;27;19924;-63
2023/10/06 10:15:44;;;;;;;;;;;;;;;14.71;59.01;99014.16;5105174;27;19943;-62
2023/10/06 10:18:33;;;;;;;;;;;;;;;14.73;59.76;99009.19;5110606;27;19952;-63
2023/10/06 10:21:22;;;;;;;;;;;;;;;14.81;59.12;99006.50;5106742;27;19931;-63
2023/10/06 10:24:12;;;;;;;;;;;;;;;14.84;58.87;99005.06;5103124;27;20566;-64
2023/10/06 10:27:23;;;;;;;;;;;;;;;14.92;59.26;99016.06;5100967;27;20301;-64
2023/10/06 10:30:14;;;;;;;;;;;;;;;14.99;59.31;99009.34;5104996;27;20010;-63
2023/10/06 10:33:05;;;;;;;;;;;;;;;15.04;58.82;99004.53;5107071;27;19924;-63
2023/10/06 10:36:12;;;;;;;;;;;;;;;15.07;57.00;98998.44;5106335;27;20026;-63
2023/10/06 10:39:04;;;;;;;;;;;;;;;15.10;55.87;98991.53;5112811;27;19924;-63
2023/10/06 10:41:57;;;;;;;;;;;;;;;15.14;56.62;98992.53;5111827;27;19924;-63
2023/10/06 10:44:47;;;;;;;;;;;;;;;15.20;56.55;98991.25;5104486;27;20012;-63
2023/10/06 10:47:37;;;;;;;;;;;;;;;15.24;55.97;98985.97;5104299;28;19931;-63
2023/10/06 10:50:29;;;;;;;;;;;;;;;15.28;56.23;98985.00;5107172;28;19923;-63
2023/10/06 10:53:17;;;;;;;;;;;;;;;15.34;55.64;98977.44;5108815;28;19927;-63
2023/10/06 10:56:06;;;;;;;;;;;;;;;15.40;55.43;98977.00;5115665;27;20016;-63
2023/10/06 10:58:58;;;;;;;;;;;;;;;15.44;55.44;98974.44;5110142;28;19923;-63
2023/10/06 11:01:51;;;;;;;;;;;;;;;15.48;56.47;98978.16;5115195;27;19978;-63
2023/10/06 11:04:40;;;;;;;;;;;;;;;15.50;54.04;98969.59;5070313;28;19932;-63
2023/10/06 11:07:28;;;;;;;;;;;;;;;15.50;54.54;98967.72;5076683;28;19929;-63
2023/10/06 11:10:19;;;;;;;;;;;;;;;15.51;54.78;98963.84;5075071;28;19925;-63
2023/10/06 11:13:15;;;;;;;;;;;;;;;15.55;55.02;98956.56;5072251;28;19924;-63
2023/10/06 11:16:04;;;;;;;;;;;;;;;15.59;55.37;98954.00;5066836;28;19924;-64
2023/10/06 11:18:52;;;;;;;;;;;;;;;15.63;55.40;98950.34;5065903;28;20049;-63
2023/10/06 11:21:44;;;;;;;;;;;;;;;15.65;55.07;98936.34;5067294;28;20469;-63
2023/10/06 11:24:32;;;;;;;;;;;;;;;15.66;55.17;98933.28;5073435;28;19931;-63
2023/10/06 11:27:21;;;;;;;;;;;;;;;15.69;55.24;98929.09;5063353;28;19924;-63
2023/10/06 11:30:11;;;;;;;;;;;;;;;15.73;55.34;98927.34;5068240;28;20695;-63
2023/10/06 11:33:03;;;;;;;;;;;;;;;15.76;55.84;98918.47;5073570;28;19924;-63
2023/10/06 11:35:53;;;;;;;;;;;;;;;15.83;54.88;98915.25;5066236;28;20014;-63
2023/10/06 11:38:45;;;;;;;;;;;;;;;15.88;54.36;98912.38;5068641;28;19925;-63
2023/10/06 11:41:33;;;;;;;;;;;;;;;15.91;54.41;98900.75;5075209;28;20747;-63
2023/10/06 11:44:37;;;;;;;;;;;;;;;15.94;54.15;98911.88;5059109;28;19924;-63
2023/10/06 11:47:36;;;;;;;;;;;;;;;15.99;55.24;98908.16;5061586;28;20309;-64
2023/10/06 11:50:24;;;;;;;;;;;;;;;16.02;54.32;98904.78;5065164;28;19981;-63
2023/10/06 11:53:19;;;;;;;;;;;;;;;16.05;55.37;98901.41;5065207;28;20616;-63
2023/10/06 11:56:10;;;;;;;;;;;;;;;16.07;54.19;98899.13;5067709;28;19928;-63
2023/10/06 11:58:59;;;;;;;;;;;;;;;16.10;54.49;98903.97;5073074;28;20500;-63
2023/10/06 12:01:48;;;;;;;;;;;;;;;16.12;53.94;98895.41;5066382;28;19924;-63
2023/10/06 12:04:37;;;;;;;;;;;;;;;16.14;53.83;98910.44;5084243;28;20400;-63
2023/10/06 12:07:26;;;;;;;;;;;;;;;16.14;53.52;98906.84;5084361;28;19924;-63
2023/10/06 12:10:17;;;;;;;;;;;;;;;16.15;53.72;98901.06;5087516;28;19928;-63
2023/10/06 12:13:10;;;;;;;;;;;;;;;16.18;53.71;98894.91;5089206;28;19931;-64
2023/10/06 12:15:58;;;;;;;;;;;;;;;16.19;54.43;98874.63;5079862;28;20015;-63
2023/10/06 12:18:46;;;;;;;;;;;;;;;16.24;54.56;98871.72;5081398;28;20073;-63
2023/10/06 12:21:35;;;;;;;;;;;;;;;16.29;54.86;98875.41;5083193;28;19935;-63
2023/10/06 12:24:23;;;;;;;;;;;;;;;16.31;54.32;98873.16;5084119;28;19931;-63
2023/10/06 12:27:11;;;;;;;;;;;;;;;16.31;53.24;98864.94;5090382;28;20057;-63
2023/10/06 12:30:03;;;;;;;;;;;;;;;16.34;53.84;98859.56;5087217;28;19935;-63
2023/10/06 12:32:51;;;;;;;;;;;;;;;16.37;53.91;98866.38;5088911;28;19928;-63
2023/10/06 12:35:40;;;;;;;;;;;;;;;16.40;54.21;98858.25;5091901;28;19951;-63
2023/10/06 12:38:28;;;;;;;;;;;;;;;16.38;54.35;98848.78;5083560;28;19924;-63
2023/10/06 12:41:17;;;;;;;;;;;;;;;16.44;54.69;98855.69;5090468;28;20661;-63
2023/10/06 12:44:05;;;;;;;;;;;;;;;16.48;54.10;98845.69;5070053;28;19924;-63
2023/10/06 12:46:55;;;;;;;;;;;;;;;16.50;51.93;98841.47;5090813;28;19932;-63
2023/10/06 12:49:45;;;;;;;;;;;;;;;16.53;51.42;98850.19;5080952;28;20382;-63
2023/10/06 12:52:34;;;;;;;;;;;;;;;16.55;52.99;98845.97;5095639;28;19973;-63
2023/10/06 12:55:24;;;;;;;;;;;;;;;16.57;52.59;98846.47;5078168;28;19924;-63
2023/10/06 12:58:15;;;;;;;;;;;;;;;16.59;53.63;98846.94;5085281;28;19924;-63
2023/10/06 13:01:07;;;;;;;;;;;;;;;16.58;52.39;98841.78;5088302;28;19973;-63
2023/10/06 13:03:56;;;;;;;;;;;;;;;16.59;51.47;98843.38;5106703;28;19947;-63
2023/10/06 13:06:45;;;;;;;;;;;;;;;16.60;50.91;98843.06;5107135;28;19934;-63
2023/10/06 13:09:35;;;;;;;;;;;;;;;16.60;50.71;98834.81;5107884;28;19931;-63
2023/10/06 13:12:25;;;;;;;;;;;;;;;16.62;50.71;98829.81;5103277;28;20594;-63
2023/10/06 13:15:17;;;;;;;;;;;;;;;16.63;49.91;98825.94;5112105;28;19939;-63
2023/10/06 13:18:07;;;;;;;;;;;;;;;16.66;49.51;98836.25;5111310;28;19932;-63
2023/10/06 13:20:58;;;;;;;;;;;;;;;16.67;46.80;98835.13;5099220;28;19924;-63
2023/10/06 13:23:46;;;;;;;;;;;;;;;16.68;47.55;98831.25;5107959;28;19923;-63
2023/10/06 13:26:34;;;;;;;;;;;;;;;16.71;46.94;98830.59;5104347;28;20060;-63
2023/10/06 13:29:32;;;;;;;;;;;;;;;16.76;47.31;98822.19;5109388;28;19928;-63
2023/10/06 13:32:21;;;;;;;;;;;;;;;16.81;46.72;98812.16;5107773;27;19927;-62
2023/10/06 13:35:13;;;;;;;;;;;;;;;16.81;45.73;98806.69;5108505;28;19946;-63
2023/10/06 13:38:04;;;;;;;;;;;;;;;16.83;47.14;98802.50;5109180;27;19924;-63
2023/10/06 13:40:53;;;;;;;;;;;;;;;16.84;45.00;98797.81;5117054;27;19924;-63
2023/10/06 13:43:41;;;;;;;;;;;;;;;16.86;44.27;98798.28;5103910;28;20035;-63
2023/10/06 13:46:29;;;;;;;;;;;;;;;16.86;44.42;98798.28;5101687;28;19970;-64
2023/10/06 13:49:19;;;;;;;;;;;;;;;16.87;42.88;98791.63;5103447;28;19930;-63
2023/10/06 13:52:10;;;;;;;;;;;;;;;16.88;43.92;98794.03;5106177;28;20397;-62
2023/10/06 13:54:59;;;;;;;;;;;;;;;16.93;42.77;98791.09;5100011;28;19932;-62
2023/10/06 13:57:47;;;;;;;;;;;;;;;16.94;44.08;98784.50;5102597;27;19927;-62
2023/10/06 14:00:38;;;;;;;;;;;;;;;16.97;42.42;98777.53;5105880;27;19932;-60
2023/10/06 14:03:26;;;;;;;;;;;;;;;16.97;42.83;98777.53;5110912;27;20376;-61
2023/10/06 14:06:15;;;;;;;;;;;;;;;17.00;42.86;98765.91;5107946;27;19932;-61
2023/10/06 14:09:05;;;;;;;;;;;;;;;17.00;44.00;98774.13;5098804;28;19932;-62
2023/10/06 14:11:55;;;;;;;;;;;;;;;17.03;44.92;98770.72;5110617;27;20292;-62
2023/10/06 14:14:59;;;;;;;;;;;;;;;17.04;44.67;98769.56;5110284;27;20153;-63
2023/10/06 14:17:47;;;;;;;;;;;;;;;17.04;44.52;98758.59;5105769;27;20001;-61
2023/10/06 14:20:36;;;;;;;;;;;;;;;17.04;45.91;98761.34;5094299;27;19963;-62
2023/10/06 14:23:29;;;;;;;;;;;;;;;17.07;44.77;98760.69;5109715;27;19930;-62
2023/10/06 14:26:22;;;;;;;;;;;;;;;17.11;44.84;98758.88;5103367;27;20373;-61
2023/10/06 14:29:15;;;;;;;;;;;;;;;17.13;45.71;98762.09;5106135;28;19927;-62
2023/10/06 14:32:18;;;;;;;;;;;;;;;17.17;44.71;98760.28;5107205;27;19923;-61
2023/10/06 14:35:23;;;;;;;;;;;;;;;17.20;44.03;98747.81;5107501;27;20006;-62
2023/10/06 14:47:30;;;;;;;;;;;;;;;17.28;44.30;98738.72;5090916;28;19924;-62
2023/10/06 14:50:19;;;;;;;;;;;;;;;17.29;44.77;98730.16;5105957;28;19923;-62
2023/10/06 14:53:07;;;;;;;;;;;;;;;17.31;45.30;98727.09;5098953;28;19923;-62
2023/10/06 14:55:56;;;;;;;;;;;;;;;17.34;44.69;98720.09;5103984;28;20278;-62
2023/10/06 14:58:44;;;;;;;;;;;;;;;17.35;44.14;98716.22;5095550;28;19924;-62
2023/10/06 15:01:34;;;;;;;;;;;;;;;17.36;43.66;98717.81;5102094;28;20007;-63